This is the latest recevied weather packets stored in our database for station/object 9M4RBN-3. If no packets are shown the sender has not sent any weather packets the latest 10 day(s).
| Time | Temp. | Humidity | Pressure | Rain* | Wind** | Luminosity | Snow |
|---|---|---|---|---|---|---|---|
| 1787754844 | 24.44° C | 43% | 1018.8 hPa | - | - | - | - |
| 1787753944 | 24.44° C | 43% | 1018.4 hPa | - | - | - | - |
| 1787753092 | 24.44° C | 44% | 1018.1 hPa | - | - | - | - |
| 1787753044 | 24.44° C | 44% | 1018.1 hPa | - | - | - | - |
| 1787752144 | 25° C | 43% | 1018 hPa | - | - | - | - |
| 1787751244 | 25° C | 43% | 1017.7 hPa | - | - | - | - |
| 1787750344 | 25.56° C | 42% | 1017.5 hPa | - | - | - | - |
| 1787749444 | 25.56° C | 41% | 1017.2 hPa | - | - | - | - |
| 1787748544 | 26.11° C | 43% | 1016.9 hPa | - | - | - | - |
| 1787747643 | 26.67° C | 47% | 1016.8 hPa | - | - | - | - |
| 1787746743 | 27.22° C | 55% | 1016.7 hPa | - | - | - | - |
| 1787745843 | 27.22° C | 68% | 1016.4 hPa | - | - | - | - |
| 1787744943 | 26.67° C | 67% | 1016.1 hPa | - | - | - | - |
| 1787744090 | 26.67° C | 55% | 1016.3 hPa | - | - | - | - |
| 1787744043 | 26.67° C | 55% | 1016.3 hPa | - | - | - | - |
| 1787743143 | 26.67° C | 41% | 1016.2 hPa | - | - | - | - |
| 1787742243 | 27.78° C | 59% | 1016.2 hPa | - | - | - | - |
| 1787741343 | 27.78° C | 70% | 1016.3 hPa | - | - | - | - |
| 1787740443 | 27.22° C | 72% | 1016.2 hPa | - | - | - | - |
| 1787739543 | 26.67° C | 67% | 1016.1 hPa | - | - | - | - |
| 1787738643 | 26.11° C | 45% | 1016.1 hPa | - | - | - | - |
| 1787737743 | 26.67° C | 45% | 1016.4 hPa | - | - | - | - |
| 1787736843 | 27.78° C | 63% | 1016.5 hPa | - | - | - | - |
| 1787735943 | 27.22° C | 62% | 1016.6 hPa | - | - | - | - |
| 1787735043 | 26.67° C | 60% | 1016.4 hPa | - | - | - | - |
* Rain since midnight (hover to see other rain measurements)
** Current wind speed in m/s (hover to see current wind gust speed)